sensor_id;sensor_type;location;lat;lon;timestamp;pressure;altitude;pressure_sealevel;temperature;humidity
17209;BME280;8720;48.488;9.202;2023-05-12T00:01:19;96708.69;;;16.33;59.41
17209;BME280;8720;48.488;9.202;2023-05-12T00:03:46;96717.44;;;16.33;59.49
17209;BME280;8720;48.488;9.202;2023-05-12T00:06:13;96711.38;;;16.31;59.43
17209;BME280;8720;48.488;9.202;2023-05-12T00:08:40;96710.56;;;16.31;59.38
17209;BME280;8720;48.488;9.202;2023-05-12T00:11:09;96715.06;;;16.29;59.35
17209;BME280;8720;48.488;9.202;2023-05-12T00:13:37;96703.63;;;16.28;59.70
17209;BME280;8720;48.488;9.202;2023-05-12T00:16:05;96707.19;;;16.27;59.69
17209;BME280;8720;48.488;9.202;2023-05-12T00:18:32;96694.06;;;16.26;59.71
17209;BME280;8720;48.488;9.202;2023-05-12T00:21:00;96696.81;;;16.24;59.43
17209;BME280;8720;48.488;9.202;2023-05-12T00:23:27;96697.75;;;16.23;59.88
17209;BME280;8720;48.488;9.202;2023-05-12T00:25:54;96701.31;;;16.22;59.91
17209;BME280;8720;48.488;9.202;2023-05-12T00:28:23;96689.97;;;16.20;59.58
17209;BME280;8720;48.488;9.202;2023-05-12T00:30:50;96689.19;;;16.18;59.70
17209;BME280;8720;48.488;9.202;2023-05-12T00:33:17;96693.69;;;16.16;59.68
17209;BME280;8720;48.488;9.202;2023-05-12T00:35:45;96691.16;;;16.15;59.67
17209;BME280;8720;48.488;9.202;2023-05-12T00:38:12;96690.28;;;16.14;59.82
17209;BME280;8720;48.488;9.202;2023-05-12T00:40:40;96690.28;;;16.14;59.97
17209;BME280;8720;48.488;9.202;2023-05-12T00:43:07;96694.78;;;16.12;59.80
17209;BME280;8720;48.488;9.202;2023-05-12T00:45:36;96692.16;;;16.12;59.95
17209;BME280;8720;48.488;9.202;2023-05-12T00:48:05;96689.50;;;16.12;59.94
17209;BME280;8720;48.488;9.202;2023-05-12T00:50:33;96693.09;;;16.11;59.80
17209;BME280;8720;48.488;9.202;2023-05-12T00:53:01;96694.78;;;16.12;60.22
17209;BME280;8720;48.488;9.202;2023-05-12T00:55:29;96695.72;;;16.11;60.22
17209;BME280;8720;48.488;9.202;2023-05-12T00:57:58;96675.09;;;16.02;60.02
17209;BME280;8720;48.488;9.202;2023-05-12T01:00:26;96688.69;;;16.12;60.30
17209;BME280;8720;48.488;9.202;2023-05-12T01:02:56;96689.50;;;16.12;59.79
17209;BME280;8720;48.488;9.202;2023-05-12T01:05:38;96692.16;;;16.12;60.08
17209;BME280;8720;48.488;9.202;2023-05-12T01:08:10;96694.00;;;16.10;59.90
17209;BME280;8720;48.488;9.202;2023-05-12T01:10:43;96688.72;;;16.10;59.84
17209;BME280;8720;48.488;9.202;2023-05-12T01:13:11;96695.72;;;16.11;60.36
17209;BME280;8720;48.488;9.202;2023-05-12T01:15:47;96692.22;;;16.11;59.94
17209;BME280;8720;48.488;9.202;2023-05-12T01:18:20;96692.22;;;16.11;60.18
17209;BME280;8720;48.488;9.202;2023-05-12T01:20:51;96693.09;;;16.11;59.99
17209;BME280;8720;48.488;9.202;2023-05-12T01:23:24;96692.22;;;16.11;60.09
17209;BME280;8720;48.488;9.202;2023-05-12T01:25:59;96692.22;;;16.11;60.19
17209;BME280;8720;48.488;9.202;2023-05-12T01:28:28;96695.72;;;16.11;60.13
17209;BME280;8720;48.488;9.202;2023-05-12T01:30:56;96686.09;;;16.10;60.31
17209;BME280;8720;48.488;9.202;2023-05-12T01:33:23;96693.19;;;16.10;60.37
17209;BME280;8720;48.488;9.202;2023-05-12T01:35:51;96684.41;;;16.09;60.00
17209;BME280;8720;48.488;9.202;2023-05-12T01:38:19;96682.66;;;16.08;60.26
17209;BME280;8720;48.488;9.202;2023-05-12T01:40:48;96680.97;;;16.07;60.27
17209;BME280;8720;48.488;9.202;2023-05-12T01:43:16;96680.03;;;16.08;60.13
17209;BME280;8720;48.488;9.202;2023-05-12T01:45:44;96688.81;;;16.09;60.55
17209;BME280;8720;48.488;9.202;2023-05-12T01:48:11;96673.06;;;16.07;60.13
17209;BME280;8720;48.488;9.202;2023-05-12T01:50:39;96680.91;;;16.09;60.49
17209;BME280;8720;48.488;9.202;2023-05-12T01:53:11;96670.91;;;15.98;60.15
17209;BME280;8720;48.488;9.202;2023-05-12T01:55:39;96682.63;;;16.10;60.26
17209;BME280;8720;48.488;9.202;2023-05-12T01:58:06;96684.31;;;16.11;60.33
17209;BME280;8720;48.488;9.202;2023-05-12T02:03:16;96689.59;;;16.11;60.47
17209;BME280;8720;48.488;9.202;2023-05-12T02:05:44;96686.19;;;16.09;60.45
17209;BME280;8720;48.488;9.202;2023-05-12T02:08:11;96693.41;;;16.05;60.68
17209;BME280;8720;48.488;9.202;2023-05-12T02:10:38;96693.47;;;16.04;60.40
17209;BME280;8720;48.488;9.202;2023-05-12T02:13:06;96683.84;;;16.03;60.39
17209;BME280;8720;48.488;9.202;2023-05-12T02:15:34;96688.34;;;16.01;60.33
17209;BME280;8720;48.488;9.202;2023-05-12T02:18:01;96692.78;;;16.00;60.62
17209;BME280;8720;48.488;9.202;2023-05-12T02:20:30;96691.84;;;16.01;60.34
17209;BME280;8720;48.488;9.202;2023-05-12T02:22:58;96693.56;;;16.02;60.40
17209;BME280;8720;48.488;9.202;2023-05-12T02:25:29;96692.63;;;16.03;60.56
17209;BME280;8720;48.488;9.202;2023-05-12T02:27:56;96685.47;;;16.05;60.78
17209;BME280;8720;48.488;9.202;2023-05-12T02:30:23;96688.03;;;16.07;60.46
17209;BME280;8720;48.488;9.202;2023-05-12T02:32:50;96692.41;;;16.08;60.56
17209;BME280;8720;48.488;9.202;2023-05-12T02:35:18;96693.22;;;16.08;60.64
17209;BME280;8720;48.488;9.202;2023-05-12T02:37:47;96694.94;;;16.09;60.44
17209;BME280;8720;48.488;9.202;2023-05-12T02:40:15;96685.25;;;16.10;60.45
17209;BME280;8720;48.488;9.202;2023-05-12T02:42:42;96694.94;;;16.09;60.86
17209;BME280;8720;48.488;9.202;2023-05-12T02:45:11;96693.19;;;16.10;60.48
17209;BME280;8720;48.488;9.202;2023-05-12T02:47:39;96686.94;;;16.11;60.43
17209;BME280;8720;48.488;9.202;2023-05-12T02:50:08;96686.88;;;16.12;60.52
17209;BME280;8720;48.488;9.202;2023-05-12T02:52:35;96684.22;;;16.12;60.83
17209;BME280;8720;48.488;9.202;2023-05-12T02:55:04;96690.38;;;16.13;60.41
17209;BME280;8720;48.488;9.202;2023-05-12T02:57:32;96680.13;;;16.07;60.55
17209;BME280;8720;48.488;9.202;2023-05-12T02:59:59;96686.03;;;16.12;60.84
17209;BME280;8720;48.488;9.202;2023-05-12T03:02:27;96679.81;;;16.13;60.40
17209;BME280;8720;48.488;9.202;2023-05-12T03:04:55;96681.59;;;16.12;60.80
17209;BME280;8720;48.488;9.202;2023-05-12T03:07:22;96684.22;;;16.12;60.31
17209;BME280;8720;48.488;9.202;2023-05-12T03:09:50;96687.81;;;16.11;60.31
17209;BME280;8720;48.488;9.202;2023-05-12T03:12:18;96687.03;;;16.09;60.24
17209;BME280;8720;48.488;9.202;2023-05-12T03:14:46;96695.88;;;16.08;60.39
17209;BME280;8720;48.488;9.202;2023-05-12T03:17:14;96694.09;;;16.09;60.68
17209;BME280;8720;48.488;9.202;2023-05-12T03:19:41;96689.69;;;16.09;60.46
17209;BME280;8720;48.488;9.202;2023-05-12T03:22:08;96684.41;;;16.09;60.53
17209;BME280;8720;48.488;9.202;2023-05-12T03:24:36;96685.25;;;16.10;60.32
17209;BME280;8720;48.488;9.202;2023-05-12T03:27:04;96680.81;;;16.10;60.68
17209;BME280;8720;48.488;9.202;2023-05-12T03:29:34;96681.75;;;16.09;60.44
17209;BME280;8720;48.488;9.202;2023-05-12T03:32:01;96678.16;;;16.10;60.57
17209;BME280;8720;48.488;9.202;2023-05-12T03:34:28;96678.16;;;16.10;60.25
17209;BME280;8720;48.488;9.202;2023-05-12T03:36:57;96679.97;;;16.10;60.35
17209;BME280;8720;48.488;9.202;2023-05-12T03:39:25;96679.13;;;16.09;60.61
17209;BME280;8720;48.488;9.202;2023-05-12T03:41:52;96675.53;;;16.10;60.58
17209;BME280;8720;48.488;9.202;2023-05-12T03:44:19;96667.19;;;16.02;60.48
17209;BME280;8720;48.488;9.202;2023-05-12T03:46:48;96678.25;;;16.09;60.48
17209;BME280;8720;48.488;9.202;2023-05-12T03:49:16;96677.47;;;16.07;60.43
17209;BME280;8720;48.488;9.202;2023-05-12T03:51:43;96685.41;;;16.07;60.66
17209;BME280;8720;48.488;9.202;2023-05-12T03:54:11;96675.00;;;16.04;60.68
17209;BME280;8720;48.488;9.202;2023-05-12T03:56:41;96683.84;;;16.03;60.29
17209;BME280;8720;48.488;9.202;2023-05-12T03:59:08;96678.66;;;16.01;60.35
17209;BME280;8720;48.488;9.202;2023-05-12T04:01:37;96676.97;;;16.00;60.42
17209;BME280;8720;48.488;9.202;2023-05-12T04:04:05;96680.44;;;16.01;60.40
17209;BME280;8720;48.488;9.202;2023-05-12T04:06:33;96679.59;;;16.00;60.44
17209;BME280;8720;48.488;9.202;2023-05-12T04:09:02;96678.75;;;16.00;60.44
17209;BME280;8720;48.488;9.202;2023-05-12T04:11:30;96676.09;;;16.00;60.51
17209;BME280;8720;48.488;9.202;2023-05-12T04:13:58;96676.97;;;16.00;60.67
17209;BME280;8720;48.488;9.202;2023-05-12T04:16:25;96681.28;;;16.01;60.50
17209;BME280;8720;48.488;9.202;2023-05-12T04:18:52;96679.50;;;16.02;60.52
17209;BME280;8720;48.488;9.202;2023-05-12T04:21:21;96678.56;;;16.03;60.57
17209;BME280;8720;48.488;9.202;2023-05-12T04:23:50;96674.16;;;16.03;60.67
17209;BME280;8720;48.488;9.202;2023-05-12T04:26:19;96685.56;;;16.04;60.37
17209;BME280;8720;48.488;9.202;2023-05-12T04:28:47;96682.84;;;16.05;60.34
17209;BME280;8720;48.488;9.202;2023-05-12T04:31:14;96681.28;;;16.01;60.67
17209;BME280;8720;48.488;9.202;2023-05-12T04:33:42;96681.91;;;16.06;60.33
17209;BME280;8720;48.488;9.202;2023-05-12T04:36:09;96687.94;;;16.08;60.29
17209;BME280;8720;48.488;9.202;2023-05-12T04:38:40;96684.41;;;16.09;60.61
17209;BME280;8720;48.488;9.202;2023-05-12T04:41:08;96689.69;;;16.09;60.50
17209;BME280;8720;48.488;9.202;2023-05-12T04:43:35;96685.19;;;16.11;60.46
17209;BME280;8720;48.488;9.202;2023-05-12T04:46:04;96693.97;;;16.12;60.50
17209;BME280;8720;48.488;9.202;2023-05-12T04:48:31;96700.94;;;16.13;60.64
17209;BME280;8720;48.488;9.202;2023-05-12T04:50:59;96697.50;;;16.11;60.58
17209;BME280;8720;48.488;9.202;2023-05-12T04:53:26;96700.75;;;16.16;60.86
17209;BME280;8720;48.488;9.202;2023-05-12T04:55:55;96698.84;;;16.19;60.69
17209;BME280;8720;48.488;9.202;2023-05-12T04:58:22;96701.31;;;16.22;60.69
17209;BME280;8720;48.488;9.202;2023-05-12T05:00:50;96688.88;;;16.24;60.40
17209;BME280;8720;48.488;9.202;2023-05-12T05:03:17;96701.00;;;16.28;60.44
17209;BME280;8720;48.488;9.202;2023-05-12T05:05:45;96705.19;;;16.32;60.46
17209;BME280;8720;48.488;9.202;2023-05-12T05:08:14;96704.09;;;16.36;60.43
17209;BME280;8720;48.488;9.202;2023-05-12T05:10:41;96708.34;;;16.39;60.46
17209;BME280;8720;48.488;9.202;2023-05-12T05:13:10;96700.38;;;16.41;60.27
17209;BME280;8720;48.488;9.202;2023-05-12T05:15:37;96707.22;;;16.45;60.22
17209;BME280;8720;48.488;9.202;2023-05-12T05:18:05;96706.16;;;16.47;60.15
17209;BME280;8720;48.488;9.202;2023-05-12T05:20:32;96712.13;;;16.52;60.28
17209;BME280;8720;48.488;9.202;2023-05-12T05:23:00;96707.59;;;16.54;60.58
17209;BME280;8720;48.488;9.202;2023-05-12T05:25:28;96717.00;;;16.60;60.18
17209;BME280;8720;48.488;9.202;2023-05-12T05:27:55;96717.69;;;16.63;60.26
17209;BME280;8720;48.488;9.202;2023-05-12T05:30:25;96713.09;;;16.67;60.16
17209;BME280;8720;48.488;9.202;2023-05-12T05:32:52;96715.50;;;16.71;60.30
17209;BME280;8720;48.488;9.202;2023-05-12T05:35:20;96716.19;;;16.75;59.79
17209;BME280;8720;48.488;9.202;2023-05-12T05:37:48;96719.59;;;16.77;59.80
17209;BME280;8720;48.488;9.202;2023-05-12T05:40:19;96715.84;;;16.81;59.79
17209;BME280;8720;48.488;9.202;2023-05-12T05:42:46;96719.28;;;16.83;59.92
17209;BME280;8720;48.488;9.202;2023-05-12T05:45:14;96716.53;;;16.84;59.61
17209;BME280;8720;48.488;9.202;2023-05-12T05:47:42;96719.88;;;16.88;59.66
17209;BME280;8720;48.488;9.202;2023-05-12T05:50:11;96725.84;;;16.91;59.42
17209;BME280;8720;48.488;9.202;2023-05-12T05:52:40;96715.13;;;16.94;59.85
17209;BME280;8720;48.488;9.202;2023-05-12T05:55:08;96724.59;;;16.98;59.92
17209;BME280;8720;48.488;9.202;2023-05-12T05:57:36;96723.41;;;17.04;59.51
17209;BME280;8720;48.488;9.202;2023-05-12T06:00:04;96728.50;;;17.07;59.65
17209;BME280;8720;48.488;9.202;2023-05-12T06:02:39;96726.50;;;17.12;59.84
17209;BME280;8720;48.488;9.202;2023-05-12T06:05:09;96727.09;;;17.17;59.64
17209;BME280;8720;48.488;9.202;2023-05-12T06:07:37;96740.88;;;17.22;59.15
17209;BME280;8720;48.488;9.202;2023-05-12T06:10:06;96741.50;;;17.27;59.24
17209;BME280;8720;48.488;9.202;2023-05-12T06:12:34;96728.19;;;17.28;59.03
17209;BME280;8720;48.488;9.202;2023-05-12T06:15:01;96736.56;;;17.37;58.98
17209;BME280;8720;48.488;9.202;2023-05-12T06:17:28;96734.50;;;17.42;59.35
17209;BME280;8720;48.488;9.202;2023-05-12T06:19:55;96737.72;;;17.48;58.97
17209;BME280;8720;48.488;9.202;2023-05-12T06:22:25;96741.72;;;17.55;59.00
17209;BME280;8720;48.488;9.202;2023-05-12T06:24:52;96740.44;;;17.62;58.85
17209;BME280;8720;48.488;9.202;2023-05-12T06:27:20;96735.56;;;17.70;59.04
17209;BME280;8720;48.488;9.202;2023-05-12T06:29:47;96730.59;;;17.80;58.91
17209;BME280;8720;48.488;9.202;2023-05-12T06:32:14;96733.50;;;17.91;58.76
17209;BME280;8720;48.488;9.202;2023-05-12T06:34:42;96736.38;;;18.02;58.41
17209;BME280;8720;48.488;9.202;2023-05-12T06:37:09;96743.72;;;18.12;58.49
17209;BME280;8720;48.488;9.202;2023-05-12T06:39:38;96742.16;;;18.24;58.43
17209;BME280;8720;48.488;9.202;2023-05-12T06:42:06;96741.59;;;18.33;58.39
17209;BME280;8720;48.488;9.202;2023-05-12T06:44:40;96740.06;;;18.45;57.98
17209;BME280;8720;48.488;9.202;2023-05-12T06:47:07;96742.16;;;18.54;57.55
17209;BME280;8720;48.488;9.202;2023-05-12T06:49:34;96741.69;;;18.61;57.44
17209;BME280;8720;48.488;9.202;2023-05-12T06:52:04;96738.88;;;18.64;57.02
17209;BME280;8720;48.488;9.202;2023-05-12T06:54:32;96742.28;;;18.66;56.94
17209;BME280;8720;48.488;9.202;2023-05-12T06:57:01;96735.09;;;18.68;56.93
17209;BME280;8720;48.488;9.202;2023-05-12T06:59:28;96736.50;;;19.02;52.94
17209;BME280;8720;48.488;9.202;2023-05-12T07:01:55;96736.72;;;18.99;54.57
17209;BME280;8720;48.488;9.202;2023-05-12T07:04:22;96733.31;;;18.97;54.89
17209;BME280;8720;48.488;9.202;2023-05-12T07:06:51;96734.22;;;18.96;55.49
17209;BME280;8720;48.488;9.202;2023-05-12T07:09:18;96737.94;;;18.93;55.40
17209;BME280;8720;48.488;9.202;2023-05-12T07:11:46;96738.03;;;18.92;55.51
17209;BME280;8720;48.488;9.202;2023-05-12T07:14:15;96731.03;;;18.91;55.53
17209;BME280;8720;48.488;9.202;2023-05-12T07:16:42;96731.88;;;18.91;55.54
17209;BME280;8720;48.488;9.202;2023-05-12T07:19:10;96730.81;;;18.94;55.53
17209;BME280;8720;48.488;9.202;2023-05-12T07:21:37;96737.47;;;19.01;55.72
17209;BME280;8720;48.488;9.202;2023-05-12T07:24:05;96737.81;;;19.09;55.37
17209;BME280;8720;48.488;9.202;2023-05-12T07:26:32;96733.88;;;19.16;55.23
17209;BME280;8720;48.488;9.202;2023-05-12T07:28:59;96734.41;;;19.21;55.00
17209;BME280;8720;48.488;9.202;2023-05-12T07:31:30;96737.72;;;19.25;54.97
17209;BME280;8720;48.488;9.202;2023-05-12T07:33:58;96732.34;;;19.26;55.00
17209;BME280;8720;48.488;9.202;2023-05-12T07:36:25;96729.31;;;19.32;55.45
17209;BME280;8720;48.488;9.202;2023-05-12T07:38:53;96732.34;;;19.40;55.49
17209;BME280;8720;48.488;9.202;2023-05-12T07:41:20;96727.31;;;19.50;54.65
17209;BME280;8720;48.488;9.202;2023-05-12T07:43:47;96734.78;;;19.57;54.88
17209;BME280;8720;48.488;9.202;2023-05-12T07:46:15;96727.94;;;19.67;54.66
17209;BME280;8720;48.488;9.202;2023-05-12T07:48:44;96729.03;;;19.77;54.82
17209;BME280;8720;48.488;9.202;2023-05-12T07:51:11;96722.94;;;19.89;54.60
17209;BME280;8720;48.488;9.202;2023-05-12T07:53:39;96729.88;;;20.19;54.68
17209;BME280;8720;48.488;9.202;2023-05-12T07:56:06;96731.50;;;20.46;54.71
17209;BME280;8720;48.488;9.202;2023-05-12T07:58:34;96726.22;;;20.71;53.74
17209;BME280;8720;48.488;9.202;2023-05-12T08:01:01;96729.25;;;20.92;53.37
17209;BME280;8720;48.488;9.202;2023-05-12T08:03:31;96729.25;;;21.17;53.64
17209;BME280;8720;48.488;9.202;2023-05-12T08:05:59;96733.25;;;21.48;52.83
17209;BME280;8720;48.488;9.202;2023-05-12T08:08:28;96727.19;;;21.69;52.36
17209;BME280;8720;48.488;9.202;2023-05-12T08:10:55;96729.00;;;21.82;51.83
17209;BME280;8720;48.488;9.202;2023-05-12T08:13:22;96724.47;;;21.95;51.62
17209;BME280;8720;48.488;9.202;2023-05-12T08:15:51;96728.06;;;22.06;51.40
17209;BME280;8720;48.488;9.202;2023-05-12T08:18:18;96719.41;;;22.15;51.07
17209;BME280;8720;48.488;9.202;2023-05-12T08:20:47;96722.56;;;22.20;50.72
17209;BME280;8720;48.488;9.202;2023-05-12T08:23:16;96724.16;;;22.23;50.47
17209;BME280;8720;48.488;9.202;2023-05-12T08:25:44;96717.22;;;22.20;50.33
17209;BME280;8720;48.488;9.202;2023-05-12T08:28:13;96724.72;;;22.15;49.85
17209;BME280;8720;48.488;9.202;2023-05-12T08:30:41;96726.03;;;22.10;50.04
17209;BME280;8720;48.488;9.202;2023-05-12T08:33:10;96724.56;;;22.06;50.58
17209;BME280;8720;48.488;9.202;2023-05-12T08:35:38;96721.38;;;22.01;50.27
17209;BME280;8720;48.488;9.202;2023-05-12T08:38:05;96723.28;;;21.99;50.48
17209;BME280;8720;48.488;9.202;2023-05-12T08:40:45;96724.38;;;21.96;50.25
17209;BME280;8720;48.488;9.202;2023-05-12T08:43:23;96727.38;;;21.92;50.09
17209;BME280;8720;48.488;9.202;2023-05-12T08:45:52;96730.50;;;21.86;49.61
17209;BME280;8720;48.488;9.202;2023-05-12T08:48:25;96712.19;;;21.68;49.63
17209;BME280;8720;48.488;9.202;2023-05-12T08:50:54;96724.59;;;21.57;49.64
17209;BME280;8720;48.488;9.202;2023-05-12T08:53:23;96727.69;;;21.51;49.56
17209;BME280;8720;48.488;9.202;2023-05-12T08:55:53;96730.91;;;21.43;49.74
17209;BME280;8720;48.488;9.202;2023-05-12T08:58:21;96729.66;;;21.36;50.05
17209;BME280;8720;48.488;9.202;2023-05-12T09:00:50;96726.44;;;21.31;50.19
17209;BME280;8720;48.488;9.202;2023-05-12T09:03:20;96729.00;;;21.33;50.04
17209;BME280;8720;48.488;9.202;2023-05-12T09:05:49;96727.00;;;21.36;50.24
17209;BME280;8720;48.488;9.202;2023-05-12T09:08:17;96727.50;;;21.41;50.13
17209;BME280;8720;48.488;9.202;2023-05-12T09:10:46;96729.84;;;21.46;50.57
17209;BME280;8720;48.488;9.202;2023-05-12T09:13:22;96731.22;;;21.51;50.49
17209;BME280;8720;48.488;9.202;2023-05-12T09:15:53;96722.03;;;21.55;50.15
17209;BME280;8720;48.488;9.202;2023-05-12T09:18:21;96726.06;;;21.61;50.25
17209;BME280;8720;48.488;9.202;2023-05-12T09:20:49;96721.38;;;21.64;50.06
17209;BME280;8720;48.488;9.202;2023-05-12T09:23:18;96739.13;;;21.77;49.71
17209;BME280;8720;48.488;9.202;2023-05-12T09:25:57;96728.06;;;21.83;49.95
17209;BME280;8720;48.488;9.202;2023-05-12T09:28:36;96731.09;;;21.89;49.72
17209;BME280;8720;48.488;9.202;2023-05-12T09:31:15;96732.59;;;21.93;49.97
17209;BME280;8720;48.488;9.202;2023-05-12T09:33:42;96729.47;;;21.99;49.72
17209;BME280;8720;48.488;9.202;2023-05-12T09:36:10;96726.25;;;22.07;49.84
17209;BME280;8720;48.488;9.202;2023-05-12T09:38:38;96728.69;;;22.10;49.52
17209;BME280;8720;48.488;9.202;2023-05-12T09:41:07;96730.50;;;22.09;49.13
17209;BME280;8720;48.488;9.202;2023-05-12T09:43:36;96728.91;;;22.07;49.01
17209;BME280;8720;48.488;9.202;2023-05-12T09:46:04;96729.06;;;21.93;48.82
17209;BME280;8720;48.488;9.202;2023-05-12T09:48:32;96727.09;;;21.84;49.46
17209;BME280;8720;48.488;9.202;2023-05-12T09:50:59;96725.69;;;21.78;49.22
17209;BME280;8720;48.488;9.202;2023-05-12T09:53:27;96723.28;;;21.75;49.33
17209;BME280;8720;48.488;9.202;2023-05-12T09:55:55;96736.59;;;21.75;49.66
17209;BME280;8720;48.488;9.202;2023-05-12T09:58:26;96733.19;;;21.73;49.00
17209;BME280;8720;48.488;9.202;2023-05-12T10:00:55;96727.66;;;21.63;49.00
17209;BME280;8720;48.488;9.202;2023-05-12T10:03:26;96720.94;;;21.58;49.27
17209;BME280;8720;48.488;9.202;2023-05-12T10:05:59;96727.00;;;21.60;49.52
17209;BME280;8720;48.488;9.202;2023-05-12T10:08:33;96722.34;;;21.63;49.46
17209;BME280;8720;48.488;9.202;2023-05-12T10:11:04;96726.13;;;21.72;49.82
17209;BME280;8720;48.488;9.202;2023-05-12T10:13:32;96722.06;;;21.79;49.52
17209;BME280;8720;48.488;9.202;2023-05-12T10:16:03;96719.72;;;21.87;49.37
17209;BME280;8720;48.488;9.202;2023-05-12T10:18:32;96716.47;;;21.95;49.52
17209;BME280;8720;48.488;9.202;2023-05-12T10:21:00;96723.81;;;22.04;49.17
17209;BME280;8720;48.488;9.202;2023-05-12T10:23:29;96722.63;;;22.08;48.86
17209;BME280;8720;48.488;9.202;2023-05-12T10:25:58;96711.72;;;22.11;48.63
17209;BME280;8720;48.488;9.202;2023-05-12T10:28:27;96712.97;;;22.18;48.38
17209;BME280;8720;48.488;9.202;2023-05-12T10:30:56;96715.91;;;22.26;48.45
17209;BME280;8720;48.488;9.202;2023-05-12T10:33:26;96718.44;;;22.27;48.04
17209;BME280;8720;48.488;9.202;2023-05-12T10:35:53;96726.06;;;22.21;48.08
17209;BME280;8720;48.488;9.202;2023-05-12T10:38:20;96721.06;;;22.16;47.94
17209;BME280;8720;48.488;9.202;2023-05-12T10:40:53;96712.81;;;22.08;48.09
17209;BME280;8720;48.488;9.202;2023-05-12T10:43:22;96721.38;;;22.01;48.35
17209;BME280;8720;48.488;9.202;2023-05-12T10:46:19;96722.91;;;21.92;48.77
17209;BME280;8720;48.488;9.202;2023-05-12T10:48:58;96721.13;;;21.80;48.42
17209;BME280;8720;48.488;9.202;2023-05-12T10:51:27;96725.00;;;21.63;48.46
17209;BME280;8720;48.488;9.202;2023-05-12T10:53:59;96739.50;;;21.47;49.13
17209;BME280;8720;48.488;9.202;2023-05-12T10:56:29;96729.44;;;21.14;49.33
17209;BME280;8720;48.488;9.202;2023-05-12T10:59:10;96730.50;;;20.74;50.75
17209;BME280;8720;48.488;9.202;2023-05-12T11:01:40;96735.44;;;20.28;51.37
17209;BME280;8720;48.488;9.202;2023-05-12T11:04:16;96738.13;;;19.87;53.03
17209;BME280;8720;48.488;9.202;2023-05-12T11:06:44;96736.38;;;19.60;54.39
17209;BME280;8720;48.488;9.202;2023-05-12T11:09:12;96739.00;;;19.47;54.83
17209;BME280;8720;48.488;9.202;2023-05-12T11:11:39;96739.66;;;19.37;55.11
17209;BME280;8720;48.488;9.202;2023-05-12T11:14:08;96747.13;;;19.30;55.59
17209;BME280;8720;48.488;9.202;2023-05-12T11:16:41;96742.66;;;19.31;56.52
17209;BME280;8720;48.488;9.202;2023-05-12T11:19:09;96749.78;;;19.30;56.32
17209;BME280;8720;48.488;9.202;2023-05-12T11:21:38;96737.44;;;19.29;57.21
17209;BME280;8720;48.488;9.202;2023-05-12T11:24:07;96744.31;;;19.33;57.00
17209;BME280;8720;48.488;9.202;2023-05-12T11:26:36;96739.53;;;19.38;56.92
17209;BME280;8720;48.488;9.202;2023-05-12T11:29:05;96749.66;;;19.46;56.96
17209;BME280;8720;48.488;9.202;2023-05-12T11:31:33;96751.00;;;19.53;57.17
17209;BME280;8720;48.488;9.202;2023-05-12T11:34:05;96737.75;;;19.53;57.19
17209;BME280;8720;48.488;9.202;2023-05-12T11:36:38;96749.16;;;19.67;56.70
17209;BME280;8720;48.488;9.202;2023-05-12T11:39:12;96743.28;;;19.76;57.12
17209;BME280;8720;48.488;9.202;2023-05-12T11:41:39;96748.00;;;19.85;57.00
17209;BME280;8720;48.488;9.202;2023-05-12T11:44:17;96740.16;;;19.97;57.26
17209;BME280;8720;48.488;9.202;2023-05-12T11:46:56;96750.75;;;20.11;57.62
17209;BME280;8720;48.488;9.202;2023-05-12T11:49:24;96735.72;;;20.24;56.87
17209;BME280;8720;48.488;9.202;2023-05-12T11:51:55;96744.03;;;20.32;56.53
17209;BME280;8720;48.488;9.202;2023-05-12T11:54:23;96727.25;;;20.31;56.29
17209;BME280;8720;48.488;9.202;2023-05-12T11:56:53;96746.81;;;20.43;56.99
17209;BME280;8720;48.488;9.202;2023-05-12T11:59:29;96740.25;;;20.48;56.62
17209;BME280;8720;48.488;9.202;2023-05-12T12:01:57;96743.44;;;20.53;56.96
17209;BME280;8720;48.488;9.202;2023-05-12T12:04:33;96743.88;;;20.60;57.64
17209;BME280;8720;48.488;9.202;2023-05-12T12:07:03;96744.63;;;20.62;56.91
17209;BME280;8720;48.488;9.202;2023-05-12T12:09:33;96734.72;;;20.51;56.76
17209;BME280;8720;48.488;9.202;2023-05-12T12:12:03;96738.22;;;20.52;56.75
17209;BME280;8720;48.488;9.202;2023-05-12T12:14:32;96755.25;;;20.49;57.57
17209;BME280;8720;48.488;9.202;2023-05-12T12:17:00;96747.34;;;20.48;57.24
17209;BME280;8720;48.488;9.202;2023-05-12T12:19:27;96753.34;;;20.51;57.59
17209;BME280;8720;48.488;9.202;2023-05-12T12:21:56;96750.34;;;20.56;57.11
17209;BME280;8720;48.488;9.202;2023-05-12T12:24:25;96753.00;;;20.56;56.71
17209;BME280;8720;48.488;9.202;2023-05-12T12:26:52;96742.59;;;20.53;56.59
17209;BME280;8720;48.488;9.202;2023-05-12T12:29:20;96741.53;;;20.55;56.83
17209;BME280;8720;48.488;9.202;2023-05-12T12:31:48;96742.59;;;20.65;57.44
17209;BME280;8720;48.488;9.202;2023-05-12T12:34:16;96745.69;;;20.72;56.42
17209;BME280;8720;48.488;9.202;2023-05-12T12:36:44;96749.09;;;20.74;56.22
17209;BME280;8720;48.488;9.202;2023-05-12T12:39:11;96756.84;;;20.77;57.26
17209;BME280;8720;48.488;9.202;2023-05-12T12:41:40;96747.53;;;20.84;56.54
17209;BME280;8720;48.488;9.202;2023-05-12T12:44:09;96750.72;;;20.89;56.10
17209;BME280;8720;48.488;9.202;2023-05-12T12:46:36;96745.28;;;20.91;56.27
17209;BME280;8720;48.488;9.202;2023-05-12T12:49:04;96752.63;;;20.87;55.93
17209;BME280;8720;48.488;9.202;2023-05-12T12:51:31;96754.13;;;20.78;56.41
17209;BME280;8720;48.488;9.202;2023-05-12T12:53:58;96755.38;;;20.73;56.72
17209;BME280;8720;48.488;9.202;2023-05-12T12:56:26;96752.41;;;20.65;56.53
17209;BME280;8720;48.488;9.202;2023-05-12T12:58:55;96767.16;;;20.56;56.48
17209;BME280;8720;48.488;9.202;2023-05-12T13:01:22;96765.00;;;20.49;57.00
17209;BME280;8720;48.488;9.202;2023-05-12T13:03:49;96767.22;;;20.42;56.20
17209;BME280;8720;48.488;9.202;2023-05-12T13:06:17;96753.16;;;20.28;56.23
17209;BME280;8720;48.488;9.202;2023-05-12T13:08:44;96765.41;;;20.16;56.67
17209;BME280;8720;48.488;9.202;2023-05-12T13:11:12;96770.38;;;20.08;56.88
17209;BME280;8720;48.488;9.202;2023-05-12T13:13:39;96767.06;;;20.05;56.89
17209;BME280;8720;48.488;9.202;2023-05-12T13:16:08;96769.19;;;20.00;57.66
17209;BME280;8720;48.488;9.202;2023-05-12T13:18:35;96767.75;;;19.94;57.74
17209;BME280;8720;48.488;9.202;2023-05-12T13:21:04;96770.09;;;19.86;57.50